Terminal Aerodrome Forecast
Issued by NWS Mt. Holly, NJ

Home | Current Version | Previous Version | Text Only | Print | Product List | Glossary On
Versions: 1 2 3 4 5 6 7 8 9 10 11 12 13
000
FTUS41 KPHI 272300
TAFRDG
TAF
KRDG 272320Z 2800/2824 27006KT P6SM SCT050
     FM280300 31004KT P6SM BKN050
     FM280500 34006KT P6SM SCT050
     FM281400 33009G18KT P6SM FEW040=

USA.gov is the U.S. government's official web portal to all federal, state and local government web resources and services.